sensor_id;sensor_type;location;lat;lon;timestamp;P1;durP1;ratioP1;P2;durP2;ratioP2
34872;SDS011;21084;51.098;14.506;2023-07-13T00:01:14;4.00;;;3.13;;
34872;SDS011;21084;51.098;14.506;2023-07-13T00:03:43;4.45;;;3.15;;
34872;SDS011;21084;51.098;14.506;2023-07-13T00:06:14;3.33;;;3.00;;
34872;SDS011;21084;51.098;14.506;2023-07-13T00:08:42;7.10;;;3.03;;
34872;SDS011;21084;51.098;14.506;2023-07-13T00:11:12;9.55;;;3.30;;
34872;SDS011;21084;51.098;14.506;2023-07-13T00:13:41;3.10;;;2.70;;
34872;SDS011;21084;51.098;14.506;2023-07-13T00:16:11;5.45;;;2.95;;
34872;SDS011;21084;51.098;14.506;2023-07-13T00:18:41;5.57;;;2.92;;
34872;SDS011;21084;51.098;14.506;2023-07-13T00:21:10;4.80;;;2.45;;
34872;SDS011;21084;51.098;14.506;2023-07-13T00:23:41;6.33;;;3.10;;
34872;SDS011;21084;51.098;14.506;2023-07-13T00:26:10;5.32;;;2.88;;
34872;SDS011;21084;51.098;14.506;2023-07-13T00:31:09;5.15;;;3.38;;
34872;SDS011;21084;51.098;14.506;2023-07-13T00:33:39;5.47;;;3.30;;
34872;SDS011;21084;51.098;14.506;2023-07-13T00:36:09;4.97;;;3.50;;
34872;SDS011;21084;51.098;14.506;2023-07-13T00:38:38;8.57;;;3.47;;
34872;SDS011;21084;51.098;14.506;2023-07-13T00:41:09;6.43;;;3.50;;
34872;SDS011;21084;51.098;14.506;2023-07-13T00:43:38;4.20;;;3.23;;
34872;SDS011;21084;51.098;14.506;2023-07-13T00:46:11;4.95;;;3.33;;
34872;SDS011;21084;51.098;14.506;2023-07-13T00:48:51;4.72;;;3.40;;
34872;SDS011;21084;51.098;14.506;2023-07-13T00:51:24;9.07;;;3.50;;
34872;SDS011;21084;51.098;14.506;2023-07-13T00:53:58;5.35;;;3.10;;
34872;SDS011;21084;51.098;14.506;2023-07-13T00:56:31;3.80;;;3.40;;
34872;SDS011;21084;51.098;14.506;2023-07-13T00:59:02;5.78;;;3.75;;
34872;SDS011;21084;51.098;14.506;2023-07-13T01:01:32;8.63;;;3.17;;
34872;SDS011;21084;51.098;14.506;2023-07-13T01:04:04;4.90;;;3.08;;
34872;SDS011;21084;51.098;14.506;2023-07-13T01:06:35;5.75;;;3.17;;
34872;SDS011;21084;51.098;14.506;2023-07-13T01:09:06;9.90;;;3.33;;
34872;SDS011;21084;51.098;14.506;2023-07-13T01:11:37;5.47;;;3.38;;
34872;SDS011;21084;51.098;14.506;2023-07-13T01:14:06;7.65;;;4.20;;
34872;SDS011;21084;51.098;14.506;2023-07-13T01:16:35;7.50;;;3.65;;
34872;SDS011;21084;51.098;14.506;2023-07-13T01:19:07;8.63;;;4.43;;
34872;SDS011;21084;51.098;14.506;2023-07-13T01:21:44;13.38;;;4.20;;
34872;SDS011;21084;51.098;14.506;2023-07-13T01:24:18;9.27;;;4.20;;
34872;SDS011;21084;51.098;14.506;2023-07-13T01:26:47;8.73;;;4.28;;
34872;SDS011;21084;51.098;14.506;2023-07-13T01:29:15;10.77;;;4.72;;
34872;SDS011;21084;51.098;14.506;2023-07-13T01:31:44;10.05;;;4.45;;
34872;SDS011;21084;51.098;14.506;2023-07-13T01:34:12;7.47;;;4.72;;
34872;SDS011;21084;51.098;14.506;2023-07-13T01:36:41;11.98;;;5.32;;
34872;SDS011;21084;51.098;14.506;2023-07-13T01:39:11;7.47;;;4.88;;
34872;SDS011;21084;51.098;14.506;2023-07-13T01:41:39;9.18;;;4.95;;
34872;SDS011;21084;51.098;14.506;2023-07-13T01:44:08;8.95;;;5.43;;
34872;SDS011;21084;51.098;14.506;2023-07-13T01:46:36;6.80;;;4.97;;
34872;SDS011;21084;51.098;14.506;2023-07-13T01:49:05;9.40;;;5.88;;
34872;SDS011;21084;51.098;14.506;2023-07-13T01:51:33;10.45;;;5.60;;
34872;SDS011;21084;51.098;14.506;2023-07-13T01:54:02;9.80;;;5.88;;
34872;SDS011;21084;51.098;14.506;2023-07-13T01:56:32;9.68;;;5.57;;
34872;SDS011;21084;51.098;14.506;2023-07-13T02:01:29;11.02;;;6.63;;
34872;SDS011;21084;51.098;14.506;2023-07-13T02:03:58;10.85;;;6.00;;
34872;SDS011;21084;51.098;14.506;2023-07-13T02:06:26;12.60;;;6.20;;
34872;SDS011;21084;51.098;14.506;2023-07-13T02:08:55;7.18;;;5.65;;
34872;SDS011;21084;51.098;14.506;2023-07-13T02:11:23;8.48;;;6.10;;
34872;SDS011;21084;51.098;14.506;2023-07-13T02:13:53;9.30;;;6.45;;
34872;SDS011;21084;51.098;14.506;2023-07-13T02:16:22;7.53;;;5.93;;
34872;SDS011;21084;51.098;14.506;2023-07-13T02:18:50;9.50;;;6.60;;
34872;SDS011;21084;51.098;14.506;2023-07-13T02:21:19;10.48;;;6.55;;
34872;SDS011;21084;51.098;14.506;2023-07-13T02:23:47;9.10;;;6.10;;
34872;SDS011;21084;51.098;14.506;2023-07-13T02:26:16;11.50;;;6.72;;
34872;SDS011;21084;51.098;14.506;2023-07-13T02:28:44;8.27;;;5.65;;
34872;SDS011;21084;51.098;14.506;2023-07-13T02:31:15;11.95;;;6.53;;
34872;SDS011;21084;51.098;14.506;2023-07-13T02:33:44;8.18;;;6.43;;
34872;SDS011;21084;51.098;14.506;2023-07-13T02:36:13;10.85;;;7.68;;
34872;SDS011;21084;51.098;14.506;2023-07-13T02:38:43;8.50;;;6.85;;
34872;SDS011;21084;51.098;14.506;2023-07-13T02:41:11;9.65;;;6.40;;
34872;SDS011;21084;51.098;14.506;2023-07-13T02:43:40;9.73;;;6.15;;
34872;SDS011;21084;51.098;14.506;2023-07-13T02:46:08;9.65;;;7.30;;
34872;SDS011;21084;51.098;14.506;2023-07-13T02:48:39;14.73;;;6.45;;
34872;SDS011;21084;51.098;14.506;2023-07-13T02:51:07;10.50;;;7.10;;
34872;SDS011;21084;51.098;14.506;2023-07-13T02:53:36;9.98;;;6.93;;
34872;SDS011;21084;51.098;14.506;2023-07-13T02:56:05;15.90;;;7.53;;
34872;SDS011;21084;51.098;14.506;2023-07-13T02:58:34;10.00;;;7.35;;
34872;SDS011;21084;51.098;14.506;2023-07-13T03:01:06;10.95;;;7.30;;
34872;SDS011;21084;51.098;14.506;2023-07-13T03:03:36;8.55;;;6.97;;
34872;SDS011;21084;51.098;14.506;2023-07-13T03:06:06;9.93;;;7.18;;
34872;SDS011;21084;51.098;14.506;2023-07-13T03:08:36;12.77;;;7.13;;
34872;SDS011;21084;51.098;14.506;2023-07-13T03:11:05;8.02;;;7.20;;
34872;SDS011;21084;51.098;14.506;2023-07-13T03:13:35;11.30;;;7.88;;
34872;SDS011;21084;51.098;14.506;2023-07-13T03:16:04;9.63;;;7.68;;
34872;SDS011;21084;51.098;14.506;2023-07-13T03:18:33;9.97;;;7.70;;
34872;SDS011;21084;51.098;14.506;2023-07-13T03:21:04;10.65;;;7.85;;
34872;SDS011;21084;51.098;14.506;2023-07-13T03:23:34;11.07;;;8.45;;
34872;SDS011;21084;51.098;14.506;2023-07-13T03:26:04;12.32;;;7.97;;
34872;SDS011;21084;51.098;14.506;2023-07-13T03:28:34;9.75;;;7.47;;
34872;SDS011;21084;51.098;14.506;2023-07-13T03:31:04;9.45;;;7.28;;
34872;SDS011;21084;51.098;14.506;2023-07-13T03:33:36;9.70;;;6.70;;
34872;SDS011;21084;51.098;14.506;2023-07-13T03:36:07;11.00;;;6.88;;
34872;SDS011;21084;51.098;14.506;2023-07-13T03:38:46;11.35;;;7.50;;
34872;SDS011;21084;51.098;14.506;2023-07-13T03:41:14;7.57;;;6.37;;
34872;SDS011;21084;51.098;14.506;2023-07-13T03:43:43;12.68;;;7.22;;
34872;SDS011;21084;51.098;14.506;2023-07-13T03:46:14;10.93;;;7.22;;
34872;SDS011;21084;51.098;14.506;2023-07-13T03:48:44;8.27;;;6.95;;
34872;SDS011;21084;51.098;14.506;2023-07-13T03:51:15;9.48;;;6.20;;
34872;SDS011;21084;51.098;14.506;2023-07-13T03:53:45;7.25;;;6.47;;
34872;SDS011;21084;51.098;14.506;2023-07-13T03:56:16;10.90;;;6.97;;
34872;SDS011;21084;51.098;14.506;2023-07-13T03:58:46;10.88;;;7.45;;
34872;SDS011;21084;51.098;14.506;2023-07-13T04:01:17;11.10;;;7.10;;
34872;SDS011;21084;51.098;14.506;2023-07-13T04:03:47;13.20;;;7.28;;
34872;SDS011;21084;51.098;14.506;2023-07-13T04:06:19;10.93;;;6.63;;
34872;SDS011;21084;51.098;14.506;2023-07-13T04:08:49;10.48;;;7.47;;
34872;SDS011;21084;51.098;14.506;2023-07-13T04:11:19;13.23;;;8.43;;
34872;SDS011;21084;51.098;14.506;2023-07-13T04:13:50;14.60;;;8.13;;
34872;SDS011;21084;51.098;14.506;2023-07-13T04:16:20;8.27;;;7.47;;
34872;SDS011;21084;51.098;14.506;2023-07-13T04:18:49;12.07;;;7.97;;
34872;SDS011;21084;51.098;14.506;2023-07-13T04:21:23;9.27;;;7.97;;
34872;SDS011;21084;51.098;14.506;2023-07-13T04:26:20;8.10;;;6.45;;
34872;SDS011;21084;51.098;14.506;2023-07-13T04:28:49;8.23;;;6.50;;
34872;SDS011;21084;51.098;14.506;2023-07-13T04:31:18;11.20;;;6.80;;
34872;SDS011;21084;51.098;14.506;2023-07-13T04:33:47;11.50;;;6.38;;
34872;SDS011;21084;51.098;14.506;2023-07-13T04:36:17;10.00;;;6.20;;
34872;SDS011;21084;51.098;14.506;2023-07-13T04:38:47;8.48;;;6.50;;
34872;SDS011;21084;51.098;14.506;2023-07-13T04:41:16;11.23;;;6.15;;
34872;SDS011;21084;51.098;14.506;2023-07-13T04:43:44;8.38;;;6.30;;
34872;SDS011;21084;51.098;14.506;2023-07-13T04:46:14;9.02;;;6.47;;
34872;SDS011;21084;51.098;14.506;2023-07-13T04:48:46;11.75;;;6.60;;
34872;SDS011;21084;51.098;14.506;2023-07-13T04:51:17;8.88;;;6.30;;
34872;SDS011;21084;51.098;14.506;2023-07-13T04:53:47;7.97;;;6.60;;
34872;SDS011;21084;51.098;14.506;2023-07-13T04:56:22;8.70;;;6.25;;
34872;SDS011;21084;51.098;14.506;2023-07-13T04:58:50;9.45;;;6.03;;
34872;SDS011;21084;51.098;14.506;2023-07-13T05:01:19;9.35;;;5.93;;
34872;SDS011;21084;51.098;14.506;2023-07-13T05:03:48;6.95;;;5.95;;
34872;SDS011;21084;51.098;14.506;2023-07-13T05:06:16;7.75;;;6.32;;
34872;SDS011;21084;51.098;14.506;2023-07-13T05:08:45;12.27;;;6.45;;
34872;SDS011;21084;51.098;14.506;2023-07-13T05:11:15;9.60;;;6.30;;
34872;SDS011;21084;51.098;14.506;2023-07-13T05:13:44;12.85;;;6.43;;
34872;SDS011;21084;51.098;14.506;2023-07-13T05:16:12;13.52;;;6.35;;
34872;SDS011;21084;51.098;14.506;2023-07-13T05:18:41;10.40;;;6.20;;
34872;SDS011;21084;51.098;14.506;2023-07-13T05:21:10;11.38;;;5.95;;
34872;SDS011;21084;51.098;14.506;2023-07-13T05:23:40;8.77;;;5.82;;
34872;SDS011;21084;51.098;14.506;2023-07-13T05:26:09;8.77;;;6.22;;
34872;SDS011;21084;51.098;14.506;2023-07-13T05:28:39;9.27;;;6.32;;
34872;SDS011;21084;51.098;14.506;2023-07-13T05:31:09;10.10;;;5.65;;
34872;SDS011;21084;51.098;14.506;2023-07-13T05:33:38;9.63;;;5.70;;
34872;SDS011;21084;51.098;14.506;2023-07-13T05:36:07;7.63;;;5.88;;
34872;SDS011;21084;51.098;14.506;2023-07-13T05:38:35;8.38;;;5.35;;
34872;SDS011;21084;51.098;14.506;2023-07-13T05:41:04;9.88;;;5.60;;
34872;SDS011;21084;51.098;14.506;2023-07-13T05:43:33;7.82;;;5.07;;
34872;SDS011;21084;51.098;14.506;2023-07-13T05:46:03;7.60;;;5.55;;
34872;SDS011;21084;51.098;14.506;2023-07-13T05:51:00;12.80;;;4.82;;
34872;SDS011;21084;51.098;14.506;2023-07-13T05:53:29;8.98;;;4.57;;
34872;SDS011;21084;51.098;14.506;2023-07-13T05:55:57;5.65;;;4.20;;
34872;SDS011;21084;51.098;14.506;2023-07-13T05:58:28;6.57;;;4.57;;
34872;SDS011;21084;51.098;14.506;2023-07-13T06:01:00;7.70;;;4.30;;
34872;SDS011;21084;51.098;14.506;2023-07-13T06:03:33;9.05;;;4.75;;
34872;SDS011;21084;51.098;14.506;2023-07-13T06:06:01;6.47;;;4.23;;
34872;SDS011;21084;51.098;14.506;2023-07-13T06:08:30;7.73;;;4.20;;
34872;SDS011;21084;51.098;14.506;2023-07-13T06:11:03;5.72;;;3.42;;
34872;SDS011;21084;51.098;14.506;2023-07-13T06:13:33;5.18;;;3.72;;
34872;SDS011;21084;51.098;14.506;2023-07-13T06:16:03;6.75;;;4.20;;
34872;SDS011;21084;51.098;14.506;2023-07-13T06:18:33;7.28;;;4.00;;
34872;SDS011;21084;51.098;14.506;2023-07-13T06:23:36;6.47;;;3.80;;
34872;SDS011;21084;51.098;14.506;2023-07-13T06:26:04;8.20;;;3.72;;
34872;SDS011;21084;51.098;14.506;2023-07-13T06:28:34;6.75;;;3.83;;
34872;SDS011;21084;51.098;14.506;2023-07-13T06:31:06;6.35;;;3.72;;
34872;SDS011;21084;51.098;14.506;2023-07-13T06:33:36;6.20;;;4.05;;
34872;SDS011;21084;51.098;14.506;2023-07-13T06:36:06;6.20;;;3.35;;
34872;SDS011;21084;51.098;14.506;2023-07-13T06:38:36;5.57;;;3.20;;
34872;SDS011;21084;51.098;14.506;2023-07-13T06:41:05;6.78;;;3.47;;
34872;SDS011;21084;51.098;14.506;2023-07-13T06:43:36;5.43;;;3.03;;
34872;SDS011;21084;51.098;14.506;2023-07-13T06:46:06;7.05;;;3.47;;
34872;SDS011;21084;51.098;14.506;2023-07-13T06:48:35;7.72;;;3.15;;
34872;SDS011;21084;51.098;14.506;2023-07-13T06:51:03;7.45;;;2.95;;
34872;SDS011;21084;51.098;14.506;2023-07-13T06:53:32;5.93;;;2.80;;
34872;SDS011;21084;51.098;14.506;2023-07-13T06:56:01;6.30;;;3.08;;
34872;SDS011;21084;51.098;14.506;2023-07-13T06:58:30;4.47;;;3.25;;
34872;SDS011;21084;51.098;14.506;2023-07-13T07:00:59;5.15;;;3.30;;
34872;SDS011;21084;51.098;14.506;2023-07-13T07:03:29;5.38;;;2.70;;
34872;SDS011;21084;51.098;14.506;2023-07-13T07:06:05;4.85;;;3.03;;
34872;SDS011;21084;51.098;14.506;2023-07-13T07:08:39;6.68;;;2.70;;
34872;SDS011;21084;51.098;14.506;2023-07-13T07:11:08;8.38;;;3.22;;
34872;SDS011;21084;51.098;14.506;2023-07-13T07:13:40;8.32;;;2.85;;
34872;SDS011;21084;51.098;14.506;2023-07-13T07:16:09;6.80;;;2.90;;
34872;SDS011;21084;51.098;14.506;2023-07-13T07:18:39;5.97;;;2.87;;
34872;SDS011;21084;51.098;14.506;2023-07-13T07:21:08;5.40;;;2.60;;
34872;SDS011;21084;51.098;14.506;2023-07-13T07:23:37;7.53;;;3.05;;
34872;SDS011;21084;51.098;14.506;2023-07-13T07:26:06;4.75;;;2.20;;
34872;SDS011;21084;51.098;14.506;2023-07-13T07:28:36;7.45;;;2.80;;
34872;SDS011;21084;51.098;14.506;2023-07-13T07:31:09;9.23;;;2.90;;
34872;SDS011;21084;51.098;14.506;2023-07-13T07:33:42;3.28;;;2.45;;
34872;SDS011;21084;51.098;14.506;2023-07-13T07:36:11;10.63;;;3.53;;
34872;SDS011;21084;51.098;14.506;2023-07-13T07:38:43;4.97;;;2.92;;
34872;SDS011;21084;51.098;14.506;2023-07-13T07:41:13;5.88;;;3.58;;
34872;SDS011;21084;51.098;14.506;2023-07-13T07:43:45;7.00;;;3.22;;
34872;SDS011;21084;51.098;14.506;2023-07-13T07:46:13;8.07;;;3.58;;
34872;SDS011;21084;51.098;14.506;2023-07-13T07:48:43;4.45;;;2.90;;
34872;SDS011;21084;51.098;14.506;2023-07-13T07:51:12;8.10;;;3.25;;
34872;SDS011;21084;51.098;14.506;2023-07-13T07:53:41;6.75;;;3.00;;
34872;SDS011;21084;51.098;14.506;2023-07-13T07:56:09;11.20;;;3.38;;
34872;SDS011;21084;51.098;14.506;2023-07-13T07:58:41;7.03;;;3.22;;
34872;SDS011;21084;51.098;14.506;2023-07-13T08:01:13;7.22;;;3.30;;
34872;SDS011;21084;51.098;14.506;2023-07-13T08:03:47;12.02;;;3.63;;
34872;SDS011;21084;51.098;14.506;2023-07-13T08:06:18;5.40;;;3.03;;
34872;SDS011;21084;51.098;14.506;2023-07-13T08:08:51;6.18;;;3.10;;
34872;SDS011;21084;51.098;14.506;2023-07-13T08:11:20;8.02;;;3.17;;
34872;SDS011;21084;51.098;14.506;2023-07-13T08:13:53;14.65;;;3.50;;
34872;SDS011;21084;51.098;14.506;2023-07-13T08:16:22;5.50;;;2.80;;
34872;SDS011;21084;51.098;14.506;2023-07-13T08:18:52;7.38;;;3.20;;
34872;SDS011;21084;51.098;14.506;2023-07-13T08:21:21;7.25;;;3.40;;
34872;SDS011;21084;51.098;14.506;2023-07-13T08:23:50;8.35;;;3.13;;
34872;SDS011;21084;51.098;14.506;2023-07-13T08:26:19;16.10;;;4.18;;
34872;SDS011;21084;51.098;14.506;2023-07-13T08:31:17;6.35;;;3.17;;
34872;SDS011;21084;51.098;14.506;2023-07-13T08:33:46;7.10;;;3.67;;
34872;SDS011;21084;51.098;14.506;2023-07-13T08:36:16;8.25;;;3.80;;
34872;SDS011;21084;51.098;14.506;2023-07-13T08:38:45;7.38;;;3.63;;
34872;SDS011;21084;51.098;14.506;2023-07-13T08:41:14;7.20;;;3.38;;
34872;SDS011;21084;51.098;14.506;2023-07-13T08:43:45;7.55;;;3.40;;
34872;SDS011;21084;51.098;14.506;2023-07-13T08:46:18;7.93;;;3.30;;
34872;SDS011;21084;51.098;14.506;2023-07-13T08:48:56;11.02;;;3.30;;
34872;SDS011;21084;51.098;14.506;2023-07-13T08:51:38;6.88;;;3.35;;
34872;SDS011;21084;51.098;14.506;2023-07-13T08:54:18;9.65;;;3.08;;
34872;SDS011;21084;51.098;14.506;2023-07-13T08:56:52;6.10;;;2.70;;
34872;SDS011;21084;51.098;14.506;2023-07-13T08:59:25;4.45;;;2.42;;
34872;SDS011;21084;51.098;14.506;2023-07-13T09:02:04;8.60;;;2.90;;
34872;SDS011;21084;51.098;14.506;2023-07-13T09:04:53;6.93;;;3.03;;
34872;SDS011;21084;51.098;14.506;2023-07-13T09:07:32;6.82;;;3.05;;
34872;SDS011;21084;51.098;14.506;2023-07-13T09:10:12;6.32;;;2.78;;
34872;SDS011;21084;51.098;14.506;2023-07-13T09:12:51;7.05;;;2.75;;
34872;SDS011;21084;51.098;14.506;2023-07-13T09:15:29;5.82;;;3.05;;
34872;SDS011;21084;51.098;14.506;2023-07-13T09:18:01;5.38;;;2.80;;
34872;SDS011;21084;51.098;14.506;2023-07-13T09:20:37;5.57;;;3.25;;
34872;SDS011;21084;51.098;14.506;2023-07-13T09:23:12;6.20;;;3.28;;
34872;SDS011;21084;51.098;14.506;2023-07-13T09:25:45;6.22;;;3.05;;
34872;SDS011;21084;51.098;14.506;2023-07-13T09:28:18;7.97;;;3.35;;
34872;SDS011;21084;51.098;14.506;2023-07-13T09:30:51;7.75;;;3.63;;
34872;SDS011;21084;51.098;14.506;2023-07-13T09:33:24;7.80;;;3.65;;
34872;SDS011;21084;51.098;14.506;2023-07-13T09:35:56;5.07;;;3.63;;
34872;SDS011;21084;51.098;14.506;2023-07-13T09:38:27;8.82;;;3.17;;
34872;SDS011;21084;51.098;14.506;2023-07-13T09:41:03;6.90;;;3.55;;
34872;SDS011;21084;51.098;14.506;2023-07-13T09:46:29;8.30;;;3.10;;
34872;SDS011;21084;51.098;14.506;2023-07-13T09:48:58;9.17;;;3.10;;
34872;SDS011;21084;51.098;14.506;2023-07-13T09:51:27;9.87;;;3.80;;
34872;SDS011;21084;51.098;14.506;2023-07-13T09:53:56;8.45;;;3.70;;
34872;SDS011;21084;51.098;14.506;2023-07-13T09:56:26;10.20;;;3.40;;
34872;SDS011;21084;51.098;14.506;2023-07-13T09:58:57;6.38;;;3.13;;
34872;SDS011;21084;51.098;14.506;2023-07-13T10:01:33;5.13;;;3.07;;
34872;SDS011;21084;51.098;14.506;2023-07-13T10:04:10;9.57;;;3.40;;
34872;SDS011;21084;51.098;14.506;2023-07-13T10:06:40;8.50;;;3.20;;
34872;SDS011;21084;51.098;14.506;2023-07-13T10:09:13;5.13;;;2.58;;
34872;SDS011;21084;51.098;14.506;2023-07-13T10:11:45;5.68;;;2.65;;
34872;SDS011;21084;51.098;14.506;2023-07-13T10:14:14;4.88;;;2.40;;
34872;SDS011;21084;51.098;14.506;2023-07-13T10:16:45;7.95;;;2.00;;
34872;SDS011;21084;51.098;14.506;2023-07-13T10:19:17;5.80;;;1.70;;
34872;SDS011;21084;51.098;14.506;2023-07-13T10:21:52;4.18;;;1.83;;
34872;SDS011;21084;51.098;14.506;2023-07-13T10:24:25;2.72;;;1.73;;
34872;SDS011;21084;51.098;14.506;2023-07-13T10:26:56;6.63;;;1.88;;
34872;SDS011;21084;51.098;14.506;2023-07-13T10:29:38;7.15;;;1.90;;
34872;SDS011;21084;51.098;14.506;2023-07-13T10:32:12;5.03;;;1.75;;
34872;SDS011;21084;51.098;14.506;2023-07-13T10:34:43;5.18;;;1.60;;
34872;SDS011;21084;51.098;14.506;2023-07-13T10:37:18;4.57;;;1.75;;
34872;SDS011;21084;51.098;14.506;2023-07-13T10:39:53;4.30;;;1.80;;
34872;SDS011;21084;51.098;14.506;2023-07-13T10:42:27;7.07;;;1.90;;
34872;SDS011;21084;51.098;14.506;2023-07-13T10:45:05;3.35;;;1.60;;
34872;SDS011;21084;51.098;14.506;2023-07-13T10:47:42;3.38;;;1.92;;
34872;SDS011;21084;51.098;14.506;2023-07-13T10:52:45;8.52;;;1.98;;
34872;SDS011;21084;51.098;14.506;2023-07-13T10:55:35;7.43;;;2.20;;
34872;SDS011;21084;51.098;14.506;2023-07-13T10:58:18;6.35;;;2.10;;
34872;SDS011;21084;51.098;14.506;2023-07-13T11:00:49;3.67;;;2.00;;
34872;SDS011;21084;51.098;14.506;2023-07-13T11:03:32;4.05;;;1.85;;
34872;SDS011;21084;51.098;14.506;2023-07-13T11:06:08;5.78;;;2.22;;
34872;SDS011;21084;51.098;14.506;2023-07-13T11:08:51;3.67;;;1.98;;
34872;SDS011;21084;51.098;14.506;2023-07-13T11:11:33;3.10;;;1.67;;
34872;SDS011;21084;51.098;14.506;2023-07-13T11:14:07;4.88;;;2.17;;
34872;SDS011;21084;51.098;14.506;2023-07-13T11:16:56;6.40;;;2.03;;
34872;SDS011;21084;51.098;14.506;2023-07-13T11:22:17;3.85;;;1.83;;
34872;SDS011;21084;51.098;14.506;2023-07-13T11:24:52;5.20;;;2.05;;
34872;SDS011;21084;51.098;14.506;2023-07-13T11:27:41;5.47;;;1.95;;
34872;SDS011;21084;51.098;14.506;2023-07-13T11:33:13;4.95;;;1.73;;
34872;SDS011;21084;51.098;14.506;2023-07-13T11:35:45;4.32;;;1.65;;
34872;SDS011;21084;51.098;14.506;2023-07-13T11:38:22;4.50;;;1.80;;
34872;SDS011;21084;51.098;14.506;2023-07-13T11:41:02;3.75;;;1.60;;
34872;SDS011;21084;51.098;14.506;2023-07-13T11:43:35;5.05;;;1.77;;
34872;SDS011;21084;51.098;14.506;2023-07-13T11:46:19;2.85;;;1.65;;
34872;SDS011;21084;51.098;14.506;2023-07-13T11:48:51;2.35;;;1.40;;
34872;SDS011;21084;51.098;14.506;2023-07-13T11:51:21;4.15;;;1.75;;
34872;SDS011;21084;51.098;14.506;2023-07-13T11:53:53;5.32;;;1.80;;
34872;SDS011;21084;51.098;14.506;2023-07-13T11:56:24;3.05;;;1.65;;
34872;SDS011;21084;51.098;14.506;2023-07-13T11:58:55;5.90;;;1.88;;
34872;SDS011;21084;51.098;14.506;2023-07-13T12:01:26;3.95;;;1.92;;
34872;SDS011;21084;51.098;14.506;2023-07-13T12:04:00;13.57;;;2.53;;
34872;SDS011;21084;51.098;14.506;2023-07-13T12:06:31;6.25;;;1.75;;
34872;SDS011;21084;51.098;14.506;2023-07-13T12:09:03;5.57;;;1.75;;
34872;SDS011;21084;51.098;14.506;2023-07-13T12:11:43;4.47;;;1.67;;
34872;SDS011;21084;51.098;14.506;2023-07-13T12:16:43;6.30;;;1.70;;
34872;SDS011;21084;51.098;14.506;2023-07-13T12:19:17;3.97;;;1.83;;
34872;SDS011;21084;51.098;14.506;2023-07-13T12:21:48;5.55;;;1.40;;
34872;SDS011;21084;51.098;14.506;2023-07-13T12:24:21;5.32;;;1.60;;
34872;SDS011;21084;51.098;14.506;2023-07-13T12:26:51;5.03;;;1.60;;
34872;SDS011;21084;51.098;14.506;2023-07-13T12:29:23;5.15;;;1.50;;
34872;SDS011;21084;51.098;14.506;2023-07-13T12:31:52;3.78;;;1.55;;
34872;SDS011;21084;51.098;14.506;2023-07-13T12:34:23;6.57;;;1.90;;
34872;SDS011;21084;51.098;14.506;2023-07-13T12:36:54;5.70;;;1.88;;
34872;SDS011;21084;51.098;14.506;2023-07-13T12:39:25;7.28;;;2.22;;
34872;SDS011;21084;51.098;14.506;2023-07-13T12:42:10;5.00;;;1.70;;
34872;SDS011;21084;51.098;14.506;2023-07-13T12:44:50;3.58;;;1.70;;
34872;SDS011;21084;51.098;14.506;2023-07-13T12:47:21;4.30;;;1.60;;
34872;SDS011;21084;51.098;14.506;2023-07-13T12:49:53;4.53;;;1.88;;
34872;SDS011;21084;51.098;14.506;2023-07-13T12:52:24;3.00;;;1.52;;
34872;SDS011;21084;51.098;14.506;2023-07-13T12:54:58;4.40;;;1.73;;
34872;SDS011;21084;51.098;14.506;2023-07-13T12:57:37;4.15;;;1.92;;
34872;SDS011;21084;51.098;14.506;2023-07-13T13:00:18;4.75;;;1.77;;
34872;SDS011;21084;51.098;14.506;2023-07-13T13:02:53;6.15;;;1.90;;
34872;SDS011;21084;51.098;14.506;2023-07-13T13:05:41;5.22;;;1.80;;
34872;SDS011;21084;51.098;14.506;2023-07-13T13:08:12;8.02;;;2.25;;
34872;SDS011;21084;51.098;14.506;2023-07-13T13:10:42;5.90;;;1.95;;
34872;SDS011;21084;51.098;14.506;2023-07-13T13:13:12;7.45;;;1.95;;
34872;SDS011;21084;51.098;14.506;2023-07-13T13:15:43;5.30;;;1.95;;
34872;SDS011;21084;51.098;14.506;2023-07-13T13:18:15;5.03;;;1.60;;
34872;SDS011;21084;51.098;14.506;2023-07-13T13:20:46;5.60;;;1.77;;
34872;SDS011;21084;51.098;14.506;2023-07-13T13:23:15;5.10;;;1.90;;
34872;SDS011;21084;51.098;14.506;2023-07-13T13:25:46;4.03;;;1.63;;
34872;SDS011;21084;51.098;14.506;2023-07-13T13:28:17;4.43;;;1.58;;
34872;SDS011;21084;51.098;14.506;2023-07-13T13:30:50;4.85;;;1.73;;
34872;SDS011;21084;51.098;14.506;2023-07-13T13:33:20;3.38;;;1.65;;
34872;SDS011;21084;51.098;14.506;2023-07-13T13:35:50;2.67;;;1.48;;
34872;SDS011;21084;51.098;14.506;2023-07-13T13:38:20;5.00;;;1.85;;
34872;SDS011;21084;51.098;14.506;2023-07-13T13:40:56;2.63;;;1.70;;
34872;SDS011;21084;51.098;14.506;2023-07-13T13:43:25;7.43;;;1.52;;
34872;SDS011;21084;51.098;14.506;2023-07-13T13:45:57;3.63;;;2.05;;
34872;SDS011;21084;51.098;14.506;2023-07-13T13:48:29;8.65;;;2.42;;
34872;SDS011;21084;51.098;14.506;2023-07-13T13:51:00;6.78;;;1.80;;
34872;SDS011;21084;51.098;14.506;2023-07-13T13:53:34;7.32;;;1.90;;
34872;SDS011;21084;51.098;14.506;2023-07-13T13:56:03;8.18;;;1.88;;
34872;SDS011;21084;51.098;14.506;2023-07-13T14:01:02;3.92;;;1.90;;
34872;SDS011;21084;51.098;14.506;2023-07-13T14:03:35;5.65;;;1.80;;
34872;SDS011;21084;51.098;14.506;2023-07-13T14:06:04;7.85;;;1.90;;
34872;SDS011;21084;51.098;14.506;2023-07-13T14:08:33;5.55;;;2.13;;
34872;SDS011;21084;51.098;14.506;2023-07-13T14:11:02;4.93;;;1.87;;
34872;SDS011;21084;51.098;14.506;2023-07-13T14:13:31;7.40;;;1.98;;
34872;SDS011;21084;51.098;14.506;2023-07-13T14:16:08;8.88;;;1.95;;
34872;SDS011;21084;51.098;14.506;2023-07-13T14:18:40;5.65;;;1.92;;
34872;SDS011;21084;51.098;14.506;2023-07-13T14:21:11;7.93;;;2.40;;
34872;SDS011;21084;51.098;14.506;2023-07-13T14:23:43;4.68;;;2.05;;
34872;SDS011;21084;51.098;14.506;2023-07-13T14:26:13;3.67;;;1.80;;
34872;SDS011;21084;51.098;14.506;2023-07-13T14:28:44;4.65;;;1.70;;
34872;SDS011;21084;51.098;14.506;2023-07-13T14:31:16;4.47;;;1.88;;
34872;SDS011;21084;51.098;14.506;2023-07-13T14:33:46;4.50;;;1.50;;
34872;SDS011;21084;51.098;14.506;2023-07-13T14:36:23;6.30;;;1.97;;
34872;SDS011;21084;51.098;14.506;2023-07-13T14:38:56;7.63;;;2.00;;
34872;SDS011;21084;51.098;14.506;2023-07-13T14:41:27;4.15;;;1.42;;
34872;SDS011;21084;51.098;14.506;2023-07-13T14:43:56;3.63;;;1.75;;
34872;SDS011;21084;51.098;14.506;2023-07-13T14:46:28;8.15;;;1.85;;
34872;SDS011;21084;51.098;14.506;2023-07-13T14:49:00;4.53;;;1.85;;
34872;SDS011;21084;51.098;14.506;2023-07-13T14:51:31;3.83;;;1.70;;
34872;SDS011;21084;51.098;14.506;2023-07-13T14:54:03;4.50;;;2.10;;
34872;SDS011;21084;51.098;14.506;2023-07-13T14:56:33;13.07;;;1.55;;
34872;SDS011;21084;51.098;14.506;2023-07-13T14:59:02;5.00;;;1.30;;
34872;SDS011;21084;51.098;14.506;2023-07-13T15:01:33;6.93;;;2.00;;
34872;SDS011;21084;51.098;14.506;2023-07-13T15:04:02;4.05;;;1.65;;
34872;SDS011;21084;51.098;14.506;2023-07-13T15:06:50;8.48;;;1.73;;
34872;SDS011;21084;51.098;14.506;2023-07-13T15:09:25;4.75;;;1.60;;
34872;SDS011;21084;51.098;14.506;2023-07-13T15:11:56;2.85;;;1.60;;
34872;SDS011;21084;51.098;14.506;2023-07-13T15:14:26;6.40;;;1.67;;
34872;SDS011;21084;51.098;14.506;2023-07-13T15:17:00;6.63;;;1.60;;
34872;SDS011;21084;51.098;14.506;2023-07-13T15:19:29;8.73;;;1.70;;
34872;SDS011;21084;51.098;14.506;2023-07-13T15:21:59;2.47;;;1.33;;
34872;SDS011;21084;51.098;14.506;2023-07-13T15:24:29;4.95;;;1.83;;
34872;SDS011;21084;51.098;14.506;2023-07-13T15:26:57;7.43;;;1.67;;
34872;SDS011;21084;51.098;14.506;2023-07-13T15:29:26;3.80;;;1.50;;